createdAt,value
2018-02-20T00:01:56.672Z,-0.20
2018-02-20T00:04:23.787Z,-0.20
2018-02-20T00:06:50.156Z,-0.20
2018-02-20T00:09:17.191Z,-0.30
2018-02-20T00:11:43.459Z,-0.40
2018-02-20T00:14:09.785Z,-0.50
2018-02-20T00:16:36.138Z,-0.50
2018-02-20T00:19:02.484Z,-0.40
2018-02-20T00:21:28.796Z,-0.40
2018-02-20T00:23:55.176Z,-0.40
2018-02-20T00:26:22.209Z,-0.40
2018-02-20T00:28:48.589Z,-0.40
2018-02-20T00:31:14.839Z,-0.40
2018-02-20T00:33:41.168Z,-0.40
2018-02-20T00:36:07.504Z,-0.40
2018-02-20T00:38:33.864Z,-0.40
2018-02-20T00:41:00.195Z,-0.50
2018-02-20T00:43:26.568Z,-0.50
2018-02-20T00:45:52.871Z,-0.60
2018-02-20T00:48:19.951Z,-0.60
2018-02-20T00:50:46.284Z,-0.60
2018-02-20T00:53:12.648Z,-0.80
2018-02-20T00:55:38.980Z,-0.90
2018-02-20T00:58:06.048Z,-1.00
2018-02-20T01:00:32.388Z,-1.00
2018-02-20T01:02:58.752Z,-1.00
2018-02-20T01:05:25.261Z,-1.10
2018-02-20T01:07:52.355Z,-1.40
2018-02-20T01:10:18.667Z,-1.40
2018-02-20T01:12:45.039Z,-1.30
2018-02-20T01:15:11.365Z,-1.30
2018-02-20T01:17:37.640Z,-1.30
2018-02-20T01:20:04.686Z,-1.50
2018-02-20T01:22:31.750Z,-1.40
2018-02-20T01:24:58.076Z,-1.50
2018-02-20T01:27:24.360Z,-1.40
2018-02-20T01:29:50.668Z,-1.50
2018-02-20T01:32:17.037Z,-1.60
2018-02-20T01:34:43.376Z,-1.60
2018-02-20T01:37:10.575Z,-1.60
2018-02-20T01:39:36.912Z,-1.60
2018-02-20T01:42:03.212Z,-1.60
2018-02-20T01:44:29.580Z,-1.50
2018-02-20T01:46:56.635Z,-1.60
2018-02-20T01:49:23.717Z,-1.50
2018-02-20T01:51:50.760Z,-1.50
2018-02-20T01:54:17.840Z,-1.60
2018-02-20T01:56:44.099Z,-1.60
2018-02-20T01:59:10.419Z,-1.70
2018-02-20T02:01:36.673Z,-1.80
2018-02-20T02:04:02.992Z,-1.70
2018-02-20T02:06:29.341Z,-1.80
2018-02-20T02:08:56.761Z,-1.90
2018-02-20T02:11:23.044Z,-1.90
2018-02-20T02:13:49.398Z,-1.90
2018-02-20T02:16:15.640Z,-2.00
2018-02-20T02:18:42.000Z,-2.00
2018-02-20T02:21:08.315Z,-2.00
2018-02-20T02:23:34.686Z,-2.00
2018-02-20T02:26:01.039Z,-1.90
2018-02-20T02:28:28.112Z,-1.90
2018-02-20T02:30:54.422Z,-1.90
2018-02-20T02:33:21.496Z,-1.90
2018-02-20T02:35:47.820Z,-1.90
2018-02-20T02:38:14.177Z,-1.90
2018-02-20T02:40:40.531Z,-1.90
2018-02-20T02:43:06.875Z,-2.00
2018-02-20T02:45:33.246Z,-2.00
2018-02-20T02:48:00.306Z,-2.00
2018-02-20T02:50:26.595Z,-2.00
2018-02-20T02:52:53.725Z,-2.00
2018-02-20T02:55:20.037Z,-2.00
2018-02-20T02:57:46.369Z,-2.00
2018-02-20T03:00:12.793Z,-2.00
2018-02-20T03:02:39.173Z,-2.00
2018-02-20T03:05:06.204Z,-1.90
2018-02-20T03:07:32.576Z,-1.90
2018-02-20T03:09:58.895Z,-1.90
2018-02-20T03:12:25.167Z,-1.90
2018-02-20T03:14:51.494Z,-1.80
2018-02-20T03:17:17.851Z,-1.80
2018-02-20T03:19:44.173Z,-1.80
2018-02-20T03:22:10.525Z,-1.80
2018-02-20T03:24:37.568Z,-1.80
2018-02-20T03:27:03.832Z,-1.80
2018-02-20T03:29:30.169Z,-1.70
2018-02-20T03:31:56.548Z,-1.80
2018-02-20T03:34:22.862Z,-1.80
2018-02-20T03:36:49.148Z,-1.80
2018-02-20T03:39:15.460Z,-1.90
2018-02-20T03:41:42.531Z,-1.90
2018-02-20T03:44:09.081Z,-1.90
2018-02-20T03:46:35.399Z,-1.90
2018-02-20T03:49:01.760Z,-1.90
2018-02-20T03:51:28.808Z,-1.90
2018-02-20T03:53:55.420Z,-1.90
2018-02-20T03:56:21.700Z,-1.90
2018-02-20T03:58:47.967Z,-1.90
2018-02-20T04:01:14.284Z,-2.00
2018-02-20T04:03:41.377Z,-2.00
2018-02-20T04:06:07.700Z,-2.00
2018-02-20T04:08:33.959Z,-2.00
2018-02-20T04:11:00.280Z,-2.10
2018-02-20T04:13:26.665Z,-2.00
2018-02-20T04:15:52.977Z,-2.00
2018-02-20T04:18:20.047Z,-2.10
2018-02-20T04:20:47.113Z,-2.10
2018-02-20T04:23:13.464Z,-2.10
2018-02-20T04:25:39.709Z,-2.10
2018-02-20T04:28:06.043Z,-2.10
2018-02-20T04:30:32.370Z,-2.20
2018-02-20T04:32:58.735Z,-2.20
2018-02-20T04:35:25.778Z,-2.30
2018-02-20T04:37:52.865Z,-2.20
2018-02-20T04:40:19.191Z,-2.30
2018-02-20T04:42:45.540Z,-2.30
2018-02-20T04:45:11.868Z,-2.30
2018-02-20T04:47:38.260Z,-2.40
2018-02-20T04:50:04.566Z,-2.40
2018-02-20T04:52:30.948Z,-2.40
2018-02-20T04:54:57.257Z,-2.40
2018-02-20T04:57:23.528Z,-2.40
2018-02-20T04:59:50.818Z,-2.40
2018-02-20T05:02:17.908Z,-2.40
2018-02-20T05:04:44.397Z,-2.40
2018-02-20T05:07:11.409Z,-2.40
2018-02-20T05:09:37.675Z,-2.40
2018-02-20T05:12:05.300Z,-2.40
2018-02-20T05:14:31.591Z,-2.40
2018-02-20T05:16:57.968Z,-2.40
2018-02-20T05:19:24.472Z,-2.50
2018-02-20T05:21:50.859Z,-2.50
2018-02-20T05:24:17.916Z,-2.60
2018-02-20T05:26:44.971Z,-2.70
2018-02-20T05:29:11.484Z,-2.70
2018-02-20T05:31:37.872Z,-2.70
2018-02-20T05:34:04.209Z,-2.70
2018-02-20T05:36:30.583Z,-2.70
2018-02-20T05:38:56.944Z,-2.70
2018-02-20T05:41:23.256Z,-2.70
2018-02-20T05:43:51.339Z,-2.70
2018-02-20T05:46:18.342Z,-2.70
2018-02-20T05:48:44.659Z,-2.70
2018-02-20T05:51:10.948Z,-2.70
2018-02-20T07:15:33.474Z,-2.60
2018-02-20T07:17:59.720Z,-4.10
2018-02-20T07:20:26.770Z,-3.80
2018-02-20T07:22:53.088Z,-3.90
2018-02-20T07:25:19.468Z,-3.70
2018-02-20T07:27:45.775Z,-3.50
2018-02-20T07:30:12.169Z,-3.30
2018-02-20T07:32:38.464Z,-3.20
2018-02-20T07:35:04.844Z,-3.10
2018-02-20T07:37:31.182Z,-3.00
2018-02-20T07:39:57.457Z,-2.80
2018-02-20T07:42:23.748Z,-2.70
2018-02-20T07:44:50.120Z,-2.60
2018-02-20T07:47:16.467Z,-2.40
2018-02-20T07:49:42.776Z,-2.30
2018-02-20T07:52:09.049Z,-2.20
2018-02-20T07:54:35.376Z,-2.10
2018-02-20T07:57:01.757Z,-2.00
2018-02-20T07:59:28.784Z,-1.90
2018-02-20T08:01:55.150Z,-1.90
2018-02-20T08:04:21.487Z,-1.70
2018-02-20T08:06:47.789Z,-1.60
2018-02-20T08:09:14.885Z,-1.40
2018-02-20T08:11:41.241Z,-1.50
2018-02-20T08:14:07.568Z,-1.40
2018-02-20T08:16:33.932Z,-1.40
2018-02-20T08:19:00.964Z,-1.20
2018-02-20T08:21:27.349Z,-1.20
2018-02-20T08:23:53.659Z,-1.20
2018-02-20T08:26:20.028Z,-1.00
2018-02-20T08:28:46.344Z,-1.00
2018-02-20T08:31:12.724Z,-0.90
2018-02-20T08:33:39.758Z,-0.70
2018-02-20T08:36:06.136Z,-0.70
2018-02-20T08:38:32.437Z,-0.60
2018-02-20T08:40:59.485Z,-0.50
2018-02-20T08:43:25.744Z,-0.50
2018-02-20T08:45:52.105Z,-0.40
2018-02-20T08:48:18.436Z,-0.30
2018-02-20T08:50:44.836Z,-0.30
2018-02-20T08:53:11.142Z,-0.20
2018-02-20T08:55:38.228Z,0.00
2018-02-20T08:58:04.491Z,-0.10
2018-02-20T09:00:30.800Z,0.00
2018-02-20T09:02:57.844Z,0.30
2018-02-20T09:05:24.201Z,0.30
2018-02-20T09:07:50.533Z,0.30
2018-02-20T09:10:16.900Z,0.40
2018-02-20T09:12:43.931Z,0.70
2018-02-20T09:15:11.000Z,0.80
2018-02-20T09:17:37.367Z,0.80
2018-02-20T09:20:03.692Z,0.90
2018-02-20T09:22:29.964Z,1.00
2018-02-20T09:24:56.269Z,1.10
2018-02-20T09:27:22.640Z,1.20
2018-02-20T09:29:49.677Z,1.40
2018-02-20T09:32:16.040Z,1.40
2018-02-20T09:34:42.373Z,1.50
2018-02-20T09:37:08.729Z,1.70
2018-02-20T09:39:34.992Z,1.80
2018-02-20T09:42:01.325Z,1.90
2018-02-20T09:44:27.644Z,1.90
2018-02-20T09:46:54.022Z,1.90
2018-02-20T09:49:20.341Z,2.00
2018-02-20T09:51:47.413Z,2.10
2018-02-20T09:54:13.740Z,2.10
2018-02-20T09:56:40.105Z,2.20
2018-02-20T09:59:06.443Z,2.40
2018-02-20T10:01:32.803Z,2.50
2018-02-20T10:03:59.850Z,2.50
2018-02-20T10:06:26.974Z,2.60
2018-02-20T10:08:53.231Z,2.60
2018-02-20T10:11:20.324Z,2.80
2018-02-20T10:13:46.649Z,2.80
2018-02-20T10:16:13.019Z,3.00
2018-02-20T10:18:39.345Z,3.10
2018-02-20T10:21:05.641Z,3.20
2018-02-20T10:23:31.927Z,3.20
2018-02-20T10:25:59.011Z,3.20
2018-02-20T10:28:25.348Z,3.10
2018-02-20T10:30:51.700Z,3.10
2018-02-20T10:33:18.032Z,3.20
2018-02-20T10:35:44.390Z,3.10
2018-02-20T10:38:10.722Z,3.20
2018-02-20T10:40:36.994Z,3.30
2018-02-20T10:43:03.304Z,3.40
2018-02-20T10:45:30.382Z,3.40
2018-02-20T10:47:56.745Z,3.40
2018-02-20T10:50:23.082Z,3.70
2018-02-20T10:52:49.412Z,3.70
2018-02-20T10:55:15.772Z,3.80
2018-02-20T10:57:42.804Z,3.70
2018-02-20T11:00:09.180Z,3.70
2018-02-20T11:02:35.508Z,3.70
2018-02-20T11:05:01.854Z,3.80
2018-02-20T11:07:28.188Z,3.90
2018-02-20T11:09:54.547Z,3.90
2018-02-20T11:12:20.867Z,4.10
2018-02-20T11:14:47.244Z,4.10
2018-02-20T11:17:14.272Z,4.10
2018-02-20T11:19:40.636Z,4.10
2018-02-20T11:22:06.960Z,4.10
2018-02-20T11:24:33.336Z,4.20
2018-02-20T11:26:59.584Z,4.20
2018-02-20T11:29:25.861Z,4.10
2018-02-20T11:31:52.175Z,4.20
2018-02-20T11:34:18.761Z,4.10
2018-02-20T11:36:45.056Z,4.20
2018-02-20T11:39:11.408Z,4.30
2018-02-20T11:41:37.733Z,4.40
2018-02-20T11:44:04.089Z,4.50
2018-02-20T11:46:30.420Z,4.50
2018-02-20T11:48:56.832Z,4.60
2018-02-20T11:51:23.108Z,4.60
2018-02-20T11:53:49.472Z,4.80
2018-02-20T11:56:15.792Z,4.80
2018-02-20T11:58:42.142Z,4.80
2018-02-20T12:01:08.424Z,5.00
2018-02-20T12:03:34.765Z,5.20
2018-02-20T12:06:01.793Z,5.30
2018-02-20T12:08:28.164Z,5.30
2018-02-20T12:10:54.489Z,5.30
2018-02-20T12:13:20.892Z,5.50
2018-02-20T12:15:47.168Z,5.30
2018-02-20T12:18:13.527Z,5.10
2018-02-20T12:20:39.863Z,5.30
2018-02-20T12:23:06.884Z,5.50
2018-02-20T12:25:33.173Z,5.40
2018-02-20T12:28:00.305Z,5.40
2018-02-20T12:30:26.581Z,5.40
2018-02-20T12:32:52.953Z,5.50
2018-02-20T12:35:19.264Z,5.40
2018-02-20T12:37:45.620Z,5.50
2018-02-20T12:40:12.116Z,6.00
2018-02-20T12:42:38.420Z,6.60
2018-02-20T12:45:05.452Z,8.70
2018-02-20T12:47:32.548Z,9.90
2018-02-20T12:49:58.860Z,9.90
2018-02-20T12:52:25.272Z,10.80
2018-02-20T12:54:52.272Z,11.80
2018-02-20T12:57:18.648Z,11.80
2018-02-20T12:59:45.686Z,12.10
2018-02-20T13:02:12.047Z,12.10
2018-02-20T13:04:38.363Z,12.40
2018-02-20T13:07:05.468Z,12.50
2018-02-20T13:09:31.809Z,12.40
2018-02-20T13:11:58.144Z,12.60
2018-02-20T13:14:24.464Z,12.50
2018-02-20T13:16:50.854Z,12.20
2018-02-20T13:19:17.169Z,12.20
2018-02-20T13:21:44.272Z,13.20
2018-02-20T13:24:10.565Z,13.20
2018-02-20T13:26:36.821Z,13.50
2018-02-20T13:29:03.180Z,12.90
2018-02-20T13:31:30.218Z,12.60
2018-02-20T13:33:56.575Z,12.60
2018-02-20T13:36:22.920Z,12.40
2018-02-20T13:38:49.172Z,12.90
2018-02-20T13:41:15.512Z,13.20
2018-02-20T13:43:41.845Z,13.00
2018-02-20T13:46:08.287Z,13.40
2018-02-20T13:48:35.279Z,13.20
2018-02-20T13:51:02.359Z,13.40
2018-02-20T13:53:28.653Z,13.30
2018-02-20T13:55:55.983Z,13.40
2018-02-20T13:58:22.269Z,13.40
2018-02-20T14:00:48.540Z,13.30
2018-02-20T14:03:14.861Z,13.10
2018-02-20T14:05:41.944Z,12.30
2018-02-20T14:08:11.031Z,12.00
2018-02-20T14:10:37.293Z,12.00
2018-02-20T14:13:03.674Z,11.80
2018-02-20T14:15:29.988Z,12.20
2018-02-20T14:17:56.300Z,12.00
2018-02-20T14:20:22.677Z,11.60
2018-02-20T14:22:49.025Z,11.50
2018-02-20T14:25:16.059Z,12.20
2018-02-20T14:27:42.428Z,12.20
2018-02-20T14:30:08.728Z,11.90
2018-02-20T14:32:35.836Z,11.60
2018-02-20T14:35:02.165Z,11.60
2018-02-20T14:37:28.513Z,11.40
2018-02-20T14:39:54.852Z,11.30
2018-02-20T14:42:21.212Z,11.30
2018-02-20T14:44:48.248Z,11.40
2018-02-20T14:47:14.626Z,11.30
2018-02-20T14:49:40.935Z,11.40
2018-02-20T14:52:07.205Z,10.90
2018-02-20T14:54:34.344Z,10.50
2018-02-20T14:57:00.699Z,10.70
2018-02-20T14:59:27.385Z,10.60
2018-02-20T15:01:53.748Z,9.80
2018-02-20T15:04:20.128Z,8.60
2018-02-20T15:06:47.203Z,8.60
2018-02-20T15:09:13.541Z,8.60
2018-02-20T15:11:39.829Z,7.70
2018-02-20T15:14:07.213Z,7.40
2018-02-20T15:16:33.530Z,6.70
2018-02-20T15:19:00.600Z,6.10
2018-02-20T15:21:27.025Z,6.10
2018-02-20T15:23:53.465Z,5.90
2018-02-20T15:26:19.899Z,5.80
2018-02-20T15:28:46.317Z,5.80
2018-02-20T15:31:12.656Z,5.90
2018-02-20T15:33:38.964Z,6.00
2018-02-20T15:36:05.978Z,6.30
2018-02-20T15:38:32.836Z,6.30
2018-02-20T15:40:59.308Z,6.40
2018-02-20T15:43:26.640Z,6.60
2018-02-20T15:45:53.811Z,6.50
2018-02-20T15:48:20.125Z,6.50
2018-02-20T15:50:47.200Z,6.50
2018-02-20T15:53:13.488Z,6.50
2018-02-20T15:55:39.956Z,6.20
2018-02-20T15:58:06.256Z,6.00
2018-02-20T16:00:33.332Z,5.70
2018-02-20T16:02:59.636Z,5.70
2018-02-20T16:05:26.707Z,5.40
2018-02-20T16:07:53.012Z,5.40
2018-02-20T16:10:20.175Z,5.10
2018-02-20T16:12:47.316Z,4.90
2018-02-20T16:15:14.395Z,4.50
2018-02-20T16:17:40.830Z,4.50
2018-02-20T16:20:07.227Z,4.30
2018-02-20T16:22:34.296Z,4.10
2018-02-20T16:25:00.620Z,4.00
2018-02-20T16:27:27.676Z,3.90
2018-02-20T16:29:53.990Z,3.90
2018-02-20T16:32:21.181Z,3.90
2018-02-20T16:34:47.568Z,3.90
2018-02-20T16:37:14.777Z,3.80
2018-02-20T16:39:41.289Z,3.90
2018-02-20T16:42:07.591Z,3.80
2018-02-20T16:44:34.669Z,3.60
2018-02-20T16:47:00.980Z,3.60
2018-02-20T16:49:27.414Z,3.60
2018-02-20T16:51:53.684Z,3.50
2018-02-20T16:54:20.390Z,3.40
2018-02-20T16:56:46.782Z,3.30
2018-02-20T16:59:13.132Z,3.30
2018-02-20T17:01:40.194Z,3.20
2018-02-20T17:04:06.507Z,3.20
2018-02-20T17:06:33.700Z,3.10
2018-02-20T17:09:00.077Z,3.10
2018-02-20T17:11:26.375Z,3.00
2018-02-20T17:13:52.626Z,2.80
2018-02-20T17:16:18.996Z,2.70
2018-02-20T17:18:46.001Z,2.40
2018-02-20T17:21:12.371Z,2.40
2018-02-20T17:23:39.416Z,2.20
2018-02-20T17:26:06.421Z,2.10
2018-02-20T17:28:32.773Z,2.10
2018-02-20T17:30:59.139Z,2.00
2018-02-20T17:33:25.592Z,1.90
2018-02-20T17:35:52.033Z,1.90
2018-02-20T17:38:18.392Z,1.90
2018-02-20T17:40:44.872Z,1.90
2018-02-20T17:43:11.584Z,1.90
2018-02-20T17:45:38.656Z,1.80
2018-02-20T17:48:04.917Z,1.80
2018-02-20T17:50:32.021Z,1.70
2018-02-20T17:52:59.032Z,1.70
2018-02-20T17:55:25.406Z,1.60
2018-02-20T17:57:51.700Z,1.60
2018-02-20T18:00:18.172Z,1.50
2018-02-20T18:02:44.640Z,1.60
2018-02-20T18:05:11.048Z,1.50
2018-02-20T18:07:37.300Z,1.40
2018-02-20T18:10:03.688Z,1.40
2018-02-20T18:12:30.751Z,1.30
2018-02-20T18:14:57.040Z,1.30
2018-02-20T18:17:25.272Z,1.20
2018-02-20T18:19:51.595Z,1.10
2018-02-20T18:22:17.964Z,1.10
2018-02-20T18:24:44.322Z,1.10
2018-02-20T18:27:10.716Z,1.10
2018-02-20T18:29:37.975Z,1.10
2018-02-20T18:32:05.134Z,1.10
2018-02-20T18:34:31.607Z,1.10
2018-02-20T18:36:58.534Z,1.10
2018-02-20T18:39:26.903Z,1.10
2018-02-20T18:41:54.951Z,1.10
2018-02-20T18:44:22.167Z,1.00
2018-02-20T18:46:49.162Z,0.90
2018-02-20T18:49:17.639Z,0.70
2018-02-20T18:51:45.540Z,0.60
2018-02-20T18:54:13.856Z,0.60
2018-02-20T18:56:40.874Z,0.60
2018-02-20T18:59:08.901Z,0.50
2018-02-20T19:01:35.877Z,0.40
2018-02-20T19:04:02.850Z,0.20
2018-02-20T19:06:30.084Z,0.20
2018-02-20T19:08:56.412Z,0.10
2018-02-20T19:11:22.785Z,0.10
2018-02-20T19:13:49.111Z,0.10
2018-02-20T19:16:16.572Z,0.00
2018-02-20T19:18:42.935Z,0.00
2018-02-20T19:21:09.288Z,0.00
2018-02-20T19:23:36.341Z,-0.10
2018-02-20T19:26:02.702Z,-0.10
2018-02-20T19:28:29.121Z,-0.10
2018-02-20T19:30:55.485Z,-0.10
2018-02-20T19:33:21.830Z,-0.20
2018-02-20T19:35:48.172Z,-0.30
2018-02-20T19:38:14.476Z,-0.40
2018-02-20T19:40:40.852Z,-0.50
2018-02-20T19:43:07.891Z,-0.60
2018-02-20T19:45:34.984Z,-0.60
2018-02-20T19:48:01.304Z,-0.70
2018-02-20T19:50:27.677Z,-0.60
2018-02-20T19:52:54.700Z,-0.70
2018-02-20T19:55:21.092Z,-0.70
2018-02-20T19:57:48.115Z,-0.80
2018-02-20T20:00:14.484Z,-0.80
2018-02-20T20:02:41.029Z,-0.80
2018-02-20T20:05:07.373Z,-0.90
2018-02-20T20:07:34.728Z,-0.90
2018-02-20T20:10:01.128Z,-0.90
2018-02-20T20:12:27.449Z,-0.90
2018-02-20T20:14:53.831Z,-1.00
2018-02-20T20:17:20.137Z,-1.00
2018-02-20T20:19:46.477Z,-1.00
2018-02-20T20:22:12.868Z,-1.00
2018-02-20T20:24:40.240Z,-1.00
2018-02-20T20:27:06.556Z,-1.00
2018-02-20T20:29:33.571Z,-1.10
2018-02-20T20:31:59.856Z,-1.10
2018-02-20T20:34:26.100Z,-1.10
2018-02-20T20:36:52.380Z,-1.10
2018-02-20T20:39:18.863Z,-1.10
2018-02-20T20:41:45.135Z,-1.10
2018-02-20T20:44:11.753Z,-1.10
2018-02-20T20:46:38.040Z,-1.10
2018-02-20T20:49:04.322Z,-1.20
2018-02-20T20:51:32.299Z,-1.20
2018-02-20T20:53:58.713Z,-1.30
2018-02-20T20:56:24.988Z,-1.30
2018-02-20T20:58:52.260Z,-1.20
2018-02-20T21:01:18.601Z,-1.30
2018-02-20T21:03:45.109Z,-1.20
2018-02-20T21:06:11.540Z,-1.20
2018-02-20T21:08:38.584Z,-1.30
2018-02-20T21:11:05.600Z,-1.30
2018-02-20T21:13:32.085Z,-1.40
2018-02-20T21:15:58.649Z,-1.40
2018-02-20T21:18:24.913Z,-1.40
2018-02-20T21:20:51.389Z,-1.40
2018-02-20T21:23:17.642Z,-1.40
2018-02-20T21:25:43.893Z,-1.40
2018-02-20T21:28:11.078Z,-1.40
2018-02-20T21:30:37.328Z,-1.40
2018-02-20T21:33:03.599Z,-1.40
2018-02-20T21:35:30.088Z,-1.40
2018-02-20T21:37:56.345Z,-1.40
2018-02-20T21:40:22.607Z,-1.40
2018-02-20T21:42:49.384Z,-1.40
2018-02-20T21:45:15.699Z,-1.40
2018-02-20T21:47:42.021Z,-1.40
2018-02-20T21:50:09.301Z,-1.40
2018-02-20T21:52:35.751Z,-1.40
2018-02-20T21:55:02.110Z,-1.40
2018-02-20T21:57:28.691Z,-1.30
2018-02-20T21:59:54.999Z,-1.40
2018-02-20T22:02:21.326Z,-1.40
2018-02-20T22:04:48.608Z,-1.40
2018-02-20T22:07:14.857Z,-1.40
2018-02-20T22:09:41.188Z,-1.40
2018-02-20T22:12:07.712Z,-1.50
2018-02-20T22:14:33.981Z,-1.60
2018-02-20T22:17:00.476Z,-1.60
2018-02-20T22:19:26.723Z,-1.60
2018-02-20T22:21:52.989Z,-1.60
2018-02-20T22:24:19.461Z,-1.60
2018-02-20T22:26:45.711Z,-1.60
2018-02-20T22:29:11.968Z,-1.60
2018-02-20T22:31:38.458Z,-1.70
2018-02-20T22:34:04.723Z,-1.70
2018-02-20T22:36:30.992Z,-1.70
2018-02-20T22:38:58.172Z,-1.80
2018-02-20T22:41:24.548Z,-1.80
2018-02-20T22:43:52.317Z,-1.80
2018-02-20T22:46:18.919Z,-1.80
2018-02-20T22:48:45.376Z,-1.90
2018-02-20T22:51:11.727Z,-1.90
2018-02-20T22:53:38.403Z,-1.90
2018-02-20T22:56:04.823Z,-1.90
2018-02-20T22:58:31.207Z,-1.90
2018-02-20T23:00:57.510Z,-1.90
2018-02-20T23:03:23.865Z,-1.90
2018-02-20T23:05:50.232Z,-1.90
2018-02-20T23:08:17.297Z,-2.00
2018-02-20T23:10:43.655Z,-2.00
2018-02-20T23:13:09.921Z,-2.00
2018-02-20T23:15:36.208Z,-2.00
2018-02-20T23:18:02.548Z,-2.00
2018-02-20T23:20:28.896Z,-2.00
2018-02-20T23:22:55.228Z,-2.00
2018-02-20T23:25:21.593Z,-2.00
2018-02-20T23:27:48.637Z,-2.00
2018-02-20T23:30:15.660Z,-2.00
2018-02-20T23:32:41.936Z,-2.00
2018-02-20T23:35:08.307Z,-2.00
2018-02-20T23:37:34.650Z,-2.00
2018-02-20T23:40:14.150Z,-2.10
2018-02-20T23:42:40.441Z,-2.00
2018-02-20T23:45:06.800Z,-2.10
2018-02-20T23:47:33.164Z,-2.10
2018-02-20T23:49:59.480Z,-2.10
2018-02-20T23:52:25.849Z,-2.10
2018-02-20T23:54:52.184Z,-2.10
2018-02-20T23:57:18.499Z,-2.10
2018-02-20T23:59:45.823Z,-2.20
